Time;durP1;ratioP1;P1;durP2;ratioP2;P2;SDS_P1;SDS_P2;PMS_P1;PMS_P2;Temp;Humidity;BMP_temperature;BMP_pressure;BME280_temperature;BME280_humidity;BME280_pressure;Samples;Min_cycle;Max_cycle;Signal;HPM_P1;HPM_P2
2021/07/22 00:00:09;;;;;;;17.27;6.43;;;;;;;20.06;63.89;100612.53;5051266;28;20127;-70
2021/07/22 00:02:36;;;;;;;11.73;5.57;;;;;;;20.00;63.96;100620.44;5038881;28;20041;-81
2021/07/22 00:05:05;;;;;;;13.80;5.72;;;;;;;20.12;64.09;100622.50;5041285;28;20057;-68
2021/07/22 00:07:32;;;;;;;12.93;5.88;;;;;;;20.04;63.90;100618.56;5037107;28;20045;-69
2021/07/22 00:09:59;;;;;;;10.98;5.47;;;;;;;20.05;64.20;100620.22;5051352;28;20144;-70
2021/07/22 00:12:25;;;;;;;15.30;5.30;;;;;;;20.09;64.56;100615.53;5033355;28;20125;-69
2021/07/22 00:14:52;;;;;;;12.30;5.53;;;;;;;20.18;64.07;100634.50;5033439;28;20068;-76
2021/07/22 00:17:19;;;;;;;11.00;5.20;;;;;;;20.12;63.96;100626.19;5040993;28;20132;-76
2021/07/22 00:19:48;;;;;;;14.30;5.40;;;;;;;20.07;64.01;100623.56;5052151;28;20052;-75
2021/07/22 00:22:15;;;;;;;13.95;5.43;;;;;;;20.05;64.49;100623.06;5034050;28;20037;-67
2021/07/22 00:24:42;;;;;;;13.70;5.53;;;;;;;20.03;64.53;100625.41;5042870;28;20053;-68
2021/07/22 00:27:09;;;;;;;11.70;5.55;;;;;;;20.06;64.40;100626.72;5040170;28;20128;-65
2021/07/22 00:29:35;;;;;;;13.10;6.22;;;;;;;20.12;64.57;100620.50;5049722;28;20077;-65
2021/07/22 00:32:02;;;;;;;13.70;5.07;;;;;;;20.15;64.34;100612.50;5038900;28;20180;-66
2021/07/22 00:34:29;;;;;;;11.35;4.85;;;;;;;20.07;64.42;100615.03;5050800;28;20068;-68
2021/07/22 00:36:56;;;;;;;12.95;5.10;;;;;;;20.04;64.50;100615.72;5069670;28;20512;-71
2021/07/22 00:39:24;;;;;;;14.45;5.78;;;;;;;19.97;64.49;100612.63;5044699;28;20119;-71
2021/07/22 00:41:51;;;;;;;12.68;5.50;;;;;;;19.98;64.69;100605.75;5040920;28;20125;-71
2021/07/22 00:44:17;;;;;;;11.52;5.20;;;;;;;20.03;64.43;100587.72;5039319;28;20143;-71
2021/07/22 00:46:44;;;;;;;15.10;5.32;;;;;;;19.98;64.44;100574.56;5041332;28;20569;-70
2021/07/22 00:49:11;;;;;;;15.82;6.40;;;;;;;19.96;64.37;100579.75;5033568;28;20120;-70
2021/07/22 00:51:39;;;;;;;10.63;6.22;;;;;;;19.91;64.57;100579.13;5063071;28;20469;-69
2021/07/22 00:54:06;;;;;;;17.65;5.63;;;;;;;19.96;64.75;100595.94;5038968;28;20132;-69
2021/07/22 00:56:34;;;;;;;11.70;6.07;;;;;;;19.90;64.56;100589.66;5042291;28;20049;-71
2021/07/22 00:59:01;;;;;;;18.60;6.85;;;;;;;19.76;64.81;100570.06;5030771;28;20129;-71
2021/07/22 01:01:29;;;;;;;14.13;6.40;;;;;;;19.89;64.79;100594.47;5041968;28;20132;-69
2021/07/22 01:03:57;;;;;;;15.20;5.28;;;;;;;19.94;64.99;100599.13;5035522;28;20137;-76
2021/07/22 01:06:24;;;;;;;13.40;4.80;;;;;;;19.88;64.97;100572.16;5064470;28;20060;-71
2021/07/22 01:08:51;;;;;;;14.88;5.75;;;;;;;19.92;64.94;100587.28;5031810;28;20053;-78
2021/07/22 01:11:18;;;;;;;12.13;5.13;;;;;;;19.91;64.77;100588.47;5043636;28;20076;-74
2021/07/22 01:13:45;;;;;;;9.75;5.20;;;;;;;19.88;64.85;100589.16;5032200;28;20601;-77
2021/07/22 01:16:12;;;;;;;11.90;5.63;;;;;;;19.88;65.13;100591.97;5036302;28;20064;-76
2021/07/22 01:18:40;;;;;;;11.18;5.95;;;;;;;19.74;65.26;100563.06;5032305;28;20048;-73
2021/07/22 01:21:08;;;;;;;13.68;5.30;;;;;;;19.96;64.97;100585.41;5050595;28;20077;-80
2021/07/22 01:23:34;;;;;;;11.27;4.90;;;;;;;19.95;64.88;100580.94;5050725;28;20135;-71
2021/07/22 01:26:02;;;;;;;11.65;5.00;;;;;;;19.90;65.09;100575.47;5034745;28;20092;-68
2021/07/22 01:28:29;;;;;;;12.95;4.45;;;;;;;19.80;65.27;100559.69;5033403;28;20045;-68
2021/07/22 01:30:56;;;;;;;12.93;5.60;;;;;;;19.82;65.09;100582.84;5032948;28;20128;-68
2021/07/22 01:33:23;;;;;;;13.32;5.78;;;;;;;19.79;65.34;100574.19;5032172;28;20051;-68
2021/07/22 01:35:50;;;;;;;11.13;5.22;;;;;;;19.63;65.23;100554.97;5033914;28;20114;-68
2021/07/22 01:38:16;;;;;;;9.88;4.55;;;;;;;19.64;65.50;100572.78;5034088;28;20529;-68
2021/07/22 01:40:43;;;;;;;9.30;4.60;;;;;;;19.49;65.45;100559.19;5030853;28;20057;-67
2021/07/22 01:43:10;;;;;;;11.77;4.47;;;;;;;19.41;65.70;100555.19;5038958;28;20147;-72
2021/07/22 01:45:37;;;;;;;8.93;4.78;;;;;;;19.46;65.51;100566.34;5039473;28;20122;-71
2021/07/22 01:48:04;;;;;;;11.02;4.95;;;;;;;19.46;65.84;100574.84;5043212;28;20120;-70
2021/07/22 01:50:31;;;;;;;10.93;4.55;;;;;;;19.39;65.78;100563.22;5043441;28;20080;-70
2021/07/22 01:52:58;;;;;;;9.40;5.07;;;;;;;19.28;65.78;100553.41;5058196;28;20143;-70
2021/07/22 01:55:24;;;;;;;13.95;4.82;;;;;;;19.16;65.89;100523.00;5047171;28;20579;-70
2021/07/22 01:57:53;;;;;;;7.88;4.10;;;;;;;19.41;66.16;100572.19;5039604;28;20533;-68
2021/07/22 02:00:20;;;;;;;10.02;4.50;;;;;;;19.28;66.13;100561.91;5043325;28;20129;-76
2021/07/22 02:02:47;;;;;;;11.70;4.30;;;;;;;19.23;66.10;100562.13;5045055;28;20077;-74
2021/07/22 02:05:14;;;;;;;11.25;4.63;;;;;;;19.23;66.38;100559.28;5038531;28;20475;-73
2021/07/22 02:07:41;;;;;;;13.93;5.45;;;;;;;19.38;66.30;100561.53;5041902;28;20166;-71
2021/07/22 02:10:08;;;;;;;8.77;5.30;;;;;;;19.08;66.21;100496.41;5040315;28;20048;-68
2021/07/22 02:12:35;;;;;;;13.73;5.43;;;;;;;19.50;66.26;100556.00;5041954;28;20149;-68
2021/07/22 02:15:03;;;;;;;11.48;6.30;;;;;;;19.52;66.05;100538.66;5039507;28;20080;-67
2021/07/22 02:17:30;;;;;;;14.80;5.88;;;;;;;19.51;66.42;100542.66;5037585;28;20072;-68
2021/07/22 02:19:57;;;;;;;12.18;6.45;;;;;;;19.52;66.44;100550.84;5062760;28;20127;-69
2021/07/22 02:22:23;;;;;;;10.02;6.03;;;;;;;19.51;66.58;100543.47;5052803;28;20041;-69
2021/07/22 02:24:50;;;;;;;11.48;6.93;;;;;;;19.50;66.50;100544.66;5046591;28;20132;-69
2021/07/22 02:27:17;;;;;;;13.80;5.82;;;;;;;19.59;66.45;100534.13;5037703;28;20132;-69
2021/07/22 02:29:45;;;;;;;12.07;6.38;;;;;;;19.67;66.31;100535.28;5044049;28;20102;-69
2021/07/22 02:32:12;;;;;;;13.60;7.07;;;;;;;19.64;66.11;100538.78;5043770;28;20080;-72
2021/07/22 02:34:38;;;;;;;13.50;6.65;;;;;;;19.46;66.31;100528.72;5036212;28;20073;-71
2021/07/22 02:37:05;;;;;;;13.70;8.07;;;;;;;19.47;66.50;100536.84;5038873;28;20087;-70
2021/07/22 02:39:35;;;;;;;12.80;6.05;;;;;;;19.45;66.44;100547.66;5034451;28;20148;-71
2021/07/22 02:42:02;;;;;;;13.65;6.38;;;;;;;19.47;66.66;100542.50;5045995;28;20048;-71
2021/07/22 02:44:29;;;;;;;11.00;5.35;;;;;;;19.45;66.47;100527.84;5044703;28;20131;-75
2021/07/22 02:46:57;;;;;;;10.95;5.25;;;;;;;19.78;66.76;100535.69;5036762;28;20050;-72
2021/07/22 02:49:24;;;;;;;14.70;6.00;;;;;;;19.63;66.23;100495.47;5040268;28;20053;-71
2021/07/22 02:51:50;;;;;;;14.85;5.18;;;;;;;19.76;65.94;100535.19;5047920;28;20121;-70
2021/07/22 02:54:17;;;;;;;12.73;5.47;;;;;;;19.82;66.50;100531.00;5051571;28;20079;-70
2021/07/22 02:56:44;;;;;;;11.77;6.22;;;;;;;19.78;66.12;100538.53;5033498;28;20076;-70
2021/07/22 02:59:11;;;;;;;9.57;5.75;;;;;;;19.81;66.29;100527.34;5039520;28;20067;-70
2021/07/22 03:01:37;;;;;;;12.75;5.32;;;;;;;19.97;66.01;100533.25;5042271;28;20120;-70
2021/07/22 03:04:05;;;;;;;9.63;5.38;;;;;;;19.96;65.96;100531.56;5036830;28;20055;-71
2021/07/22 03:06:31;;;;;;;11.00;5.13;;;;;;;20.17;65.98;100539.25;5039943;28;20512;-71
2021/07/22 03:08:58;;;;;;;10.82;4.70;;;;;;;20.44;65.72;100535.00;5034622;28;20583;-70
2021/07/22 03:11:25;;;;;;;13.68;6.20;;;;;;;20.30;65.34;100535.31;5032033;28;20211;-72
2021/07/22 03:13:52;;;;;;;6.97;4.15;;;;;;;20.22;65.54;100516.38;5045772;28;20120;-72
2021/07/22 03:16:19;;;;;;;10.82;4.38;;;;;;;20.17;65.26;100542.09;5039849;28;20048;-70
2021/07/22 03:18:45;;;;;;;10.55;4.95;;;;;;;20.04;65.57;100536.34;5039635;28;20433;-71
2021/07/22 03:21:13;;;;;;;6.93;3.92;;;;;;;19.77;65.87;100525.56;5042836;28;20135;-68
2021/07/22 03:23:40;;;;;;;8.82;4.10;;;;;;;19.68;65.96;100536.09;5040761;28;20132;-69
2021/07/22 03:26:06;;;;;;;8.73;4.00;;;;;;;19.46;66.39;100532.38;5041997;28;20465;-71
2021/07/22 03:28:33;;;;;;;10.82;5.20;;;;;;;19.28;66.81;100522.28;5045722;28;20132;-78
2021/07/22 03:31:00;;;;;;;8.63;4.10;;;;;;;19.28;66.77;100530.78;5038146;28;20515;-70
2021/07/22 03:33:27;;;;;;;7.70;4.30;;;;;;;19.29;66.88;100526.78;5041779;28;20107;-72
2021/07/22 03:35:54;;;;;;;7.90;4.57;;;;;;;19.18;66.87;100515.84;5033478;28;20393;-69
2021/07/22 03:38:21;;;;;;;9.70;4.80;;;;;;;19.22;66.91;100515.16;5037365;28;20077;-68
2021/07/22 03:40:47;;;;;;;8.25;4.28;;;;;;;19.36;66.99;100535.56;5034804;28;20140;-73
2021/07/22 03:43:14;;;;;;;11.88;4.90;;;;;;;19.31;66.82;100507.44;5041133;28;20088;-72
2021/07/22 03:45:41;;;;;;;7.18;4.28;;;;;;;19.44;66.73;100531.84;5037982;28;20055;-72
2021/07/22 03:48:08;;;;;;;10.35;4.00;;;;;;;19.37;66.72;100532.41;5035481;28;20042;-69
2021/07/22 03:50:35;;;;;;;7.30;3.10;;;;;;;19.37;67.28;100542.91;5035504;28;20048;-65
2021/07/22 03:53:02;;;;;;;6.28;3.65;;;;;;;19.50;66.97;100529.69;5042187;28;20667;-67
2021/07/22 03:55:29;;;;;;;7.38;3.40;;;;;;;19.31;67.16;100532.91;5037204;28;20477;-67
2021/07/22 03:57:56;;;;;;;4.97;2.95;;;;;;;18.93;67.31;100511.91;5054188;28;20452;-68
2021/07/22 04:00:24;;;;;;;6.65;3.25;;;;;;;18.87;67.96;100516.13;5047414;28;20088;-69
2021/07/22 04:03:09;;;;;;;8.50;3.38;;;;;;;18.84;67.97;100519.63;5034655;28;20465;-67
2021/07/22 04:05:36;;;;;;;6.50;3.50;;;;;;;18.87;67.83;100532.25;5034664;28;20160;-68
2021/07/22 04:08:03;;;;;;;6.72;3.92;;;;;;;18.76;68.32;100522.47;5044102;28;20565;-67
2021/07/22 04:10:30;;;;;;;6.05;3.30;;;;;;;18.75;68.63;100517.97;5037900;28;20052;-67
2021/07/22 04:13:01;;;;;;;6.10;2.70;;;;;;;18.75;68.60;100524.47;5054421;28;20144;-67
2021/07/22 04:15:29;;;;;;;6.35;3.80;;;;;;;18.76;68.33;100519.63;5037122;28;20132;-66
2021/07/22 04:17:57;;;;;;;6.75;3.25;;;;;;;18.74;68.67;100527.66;5037978;28;20172;-66
2021/07/22 04:20:25;;;;;;;8.45;4.53;;;;;;;18.57;68.71;100517.16;5031739;28;20042;-66
2021/07/22 04:22:53;;;;;;;6.00;3.60;;;;;;;18.70;68.32;100542.44;5033705;28;20127;-66
2021/07/22 04:25:19;;;;;;;8.02;3.88;;;;;;;18.79;69.38;100544.44;5037928;28;20180;-66
2021/07/22 04:27:46;;;;;;;6.32;3.30;;;;;;;18.73;69.14;100528.78;5049496;28;20557;-74
2021/07/22 04:30:13;;;;;;;6.30;3.10;;;;;;;18.78;69.09;100543.59;5037275;28;20049;-67
2021/07/22 04:32:40;;;;;;;6.15;3.05;;;;;;;18.68;68.94;100516.47;5037606;28;20049;-63
2021/07/22 04:35:08;;;;;;;7.05;3.30;;;;;;;18.76;68.85;100528.94;5025491;28;20128;-64
2021/07/22 04:37:39;;;;;;;7.07;4.18;;;;;;;18.84;69.05;100532.94;5042079;28;20132;-65
2021/07/22 04:40:06;;;;;;;8.27;3.85;;;;;;;18.85;68.99;100534.59;5035702;28;20125;-65
2021/07/22 04:42:34;;;;;;;4.40;2.92;;;;;;;18.84;68.96;100535.78;5034294;28;20083;-73
2021/07/22 04:45:02;;;;;;;7.57;3.33;;;;;;;18.84;69.13;100524.47;5036316;28;20095;-75
2021/07/22 04:47:28;;;;;;;6.97;3.50;;;;;;;18.89;68.59;100533.56;5032184;28;20433;-70
2021/07/22 04:49:55;;;;;;;5.80;3.17;;;;;;;18.91;68.69;100536.09;5031510;28;20049;-70
2021/07/22 04:52:22;;;;;;;8.07;3.58;;;;;;;18.81;69.05;100547.75;5045687;28;20471;-68
2021/07/22 04:54:49;;;;;;;7.65;3.33;;;;;;;18.89;68.78;100549.72;5039218;28;20124;-67
2021/07/22 04:57:16;;;;;;;8.00;4.03;;;;;;;18.80;68.45;100529.09;5053740;28;20596;-69
2021/07/22 04:59:43;;;;;;;4.85;3.28;;;;;;;18.93;68.38;100557.19;5049945;28;20387;-69
2021/07/22 05:02:10;;;;;;;8.65;4.20;;;;;;;18.80;68.52;100541.25;5051133;28;20553;-66
2021/07/22 05:04:37;;;;;;;7.93;4.63;;;;;;;18.86;68.48;100556.06;5049496;28;20127;-72
2021/07/22 05:07:05;;;;;;;8.68;4.25;;;;;;;18.81;68.68;100559.06;5046080;28;20053;-75
2021/07/22 05:09:32;;;;;;;8.52;3.83;;;;;;;18.90;68.85;100557.03;5044687;28;20966;-72
2021/07/22 05:11:59;;;;;;;7.30;3.97;;;;;;;18.89;69.04;100555.38;5040335;28;20075;-72
2021/07/22 05:14:26;;;;;;;12.60;5.47;;;;;;;18.93;68.57;100554.38;5046306;28;20080;-68
2021/07/22 05:16:53;;;;;;;9.30;5.68;;;;;;;18.82;69.23;100549.41;5043438;28;20053;-68
2021/07/22 05:19:20;;;;;;;9.52;6.18;;;;;;;18.81;68.89;100542.09;5043658;28;20110;-68
2021/07/22 05:21:46;;;;;;;10.98;6.72;;;;;;;18.82;68.75;100555.91;5040084;28;20132;-68
2021/07/22 05:24:13;;;;;;;11.13;7.10;;;;;;;18.73;68.89;100540.94;5044721;28;20049;-68
2021/07/22 05:26:40;;;;;;;16.95;8.70;;;;;;;18.80;68.65;100554.56;5032058;28;20077;-69
2021/07/22 05:29:09;;;;;;;10.90;6.97;;;;;;;18.89;69.05;100567.53;5077351;28;20080;-70
2021/07/22 05:31:41;;;;;;;15.05;8.13;;;;;;;18.99;68.47;100563.50;5044763;28;20045;-69
2021/07/22 05:34:09;;;;;;;12.85;7.55;;;;;;;19.01;68.62;100563.16;5040618;28;20084;-62
2021/07/22 05:36:36;;;;;;;12.23;7.28;;;;;;;19.05;68.51;100565.00;5036774;28;20092;-63
2021/07/22 05:39:03;;;;;;;14.25;8.32;;;;;;;19.13;68.22;100566.97;5043246;28;20083;-72
2021/07/22 05:41:30;;;;;;;13.43;7.78;;;;;;;19.13;68.34;100571.81;5035440;28;20553;-70
2021/07/22 05:43:57;;;;;;;20.85;10.38;;;;;;;19.17;68.10;100570.78;5044922;28;20059;-71
2021/07/22 05:46:24;;;;;;;15.55;9.13;;;;;;;19.20;68.19;100571.28;5038417;28;20132;-61
2021/07/22 05:48:51;;;;;;;14.70;7.35;;;;;;;19.13;68.44;100566.13;5047833;28;20072;-62
2021/07/22 05:51:18;;;;;;;13.88;7.35;;;;;;;18.92;68.57;100552.72;5069656;28;20091;-63
2021/07/22 05:53:45;;;;;;;9.13;5.65;;;;;;;18.93;69.14;100565.69;5036220;28;20046;-63
2021/07/22 05:56:17;;;;;;;10.48;5.95;;;;;;;18.94;68.64;100573.03;5039546;28;20476;-63
2021/07/22 05:58:44;;;;;;;11.75;5.70;;;;;;;18.89;68.78;100567.53;5047121;28;20561;-64
2021/07/22 06:01:11;;;;;;;10.40;5.40;;;;;;;18.97;68.94;100568.66;5034408;28;20129;-62
2021/07/22 06:03:38;;;;;;;11.43;5.45;;;;;;;18.89;68.97;100575.19;5037462;28;20055;-64
2021/07/22 06:06:06;;;;;;;10.32;4.93;;;;;;;18.79;68.67;100569.88;5043153;28;20167;-62
2021/07/22 06:08:34;;;;;;;8.82;5.28;;;;;;;18.67;68.94;100571.38;5045832;28;20465;-62
2021/07/22 06:11:06;;;;;;;11.45;5.60;;;;;;;18.47;69.38;100549.44;5070167;28;20045;-62
2021/07/22 06:13:36;;;;;;;12.68;5.50;;;;;;;18.51;69.21;100567.41;5040000;28;20132;-60
2021/07/22 06:16:09;;;;;;;12.55;5.60;;;;;;;18.41;69.60;100556.44;5035886;28;20095;-72
2021/07/22 06:18:36;;;;;;;8.90;4.18;;;;;;;18.27;69.69;100550.13;5051834;28;20091;-69
2021/07/22 06:21:03;;;;;;;6.75;4.20;;;;;;;18.20;69.89;100557.09;5043658;28;20124;-71
2021/07/22 06:23:30;;;;;;;9.80;4.15;;;;;;;18.27;69.67;100572.72;5036556;28;20120;-71
2021/07/22 06:26:00;;;;;;;10.18;4.55;;;;;;;18.27;70.06;100564.25;5042094;28;20134;-71
2021/07/22 06:28:28;;;;;;;7.93;4.47;;;;;;;18.28;69.80;100572.38;5047812;28;20095;-70
2021/07/22 06:30:56;;;;;;;12.52;3.83;;;;;;;18.33;69.74;100577.06;5043554;28;20116;-70
2021/07/22 06:33:23;;;;;;;10.75;4.88;;;;;;;18.41;69.87;100590.34;5052038;28;20127;-70
2021/07/22 06:35:51;;;;;;;10.60;3.30;;;;;;;18.34;69.90;100582.38;5035160;28;20057;-68
2021/07/22 06:38:18;;;;;;;5.78;3.25;;;;;;;18.29;69.72;100581.69;5040818;28;20570;-67
2021/07/22 06:40:45;;;;;;;9.35;4.50;;;;;;;18.02;69.96;100544.13;5042921;28;20144;-67
2021/07/22 06:43:12;;;;;;;9.40;3.90;;;;;;;18.31;69.87;100585.03;5033923;28;20167;-67
2021/07/22 06:45:41;;;;;;;8.45;4.60;;;;;;;18.15;70.20;100560.09;5031107;28;20080;-68
2021/07/22 06:48:08;;;;;;;7.47;4.55;;;;;;;18.34;70.11;100590.03;5043280;28;20044;-67
2021/07/22 06:50:35;;;;;;;9.93;5.03;;;;;;;18.29;70.12;100579.72;5038685;28;20099;-68
2021/07/22 06:53:05;;;;;;;8.32;6.00;;;;;;;18.32;70.37;100581.03;5034870;28;20037;-68
2021/07/22 06:55:32;;;;;;;;;;;;;;;18.37;70.37;100583.72;5037522;28;20136;-68
2021/07/22 06:58:06;;;;;;;10.10;6.50;;;;;;;18.45;70.10;100591.34;5042239;28;20338;-68
2021/07/22 07:00:34;;;;;;;8.63;5.03;;;;;;;18.48;69.79;100591.50;5037656;28;20105;-68
2021/07/22 07:03:05;;;;;;;11.93;6.50;;;;;;;18.46;69.92;100573.19;5036001;28;20050;-68
2021/07/22 07:05:33;;;;;;;10.38;5.50;;;;;;;18.65;69.69;100590.66;5033734;28;20046;-67
2021/07/22 07:08:00;;;;;;;10.13;6.00;;;;;;;18.73;69.65;100588.19;5046933;28;20132;-68
2021/07/22 07:10:30;;;;;;;9.98;4.38;;;;;;;18.76;69.73;100599.66;5035954;28;20041;-67
2021/07/22 07:12:57;;;;;;;8.68;4.47;;;;;;;18.60;69.81;100590.03;5038108;28;20597;-68
2021/07/22 07:15:24;;;;;;;8.93;4.97;;;;;;;18.66;69.79;100603.63;5035076;28;20057;-68
2021/07/22 07:17:52;;;;;;;8.73;5.05;;;;;;;18.70;69.65;100590.50;5042131;28;20468;-69
2021/07/22 07:20:19;;;;;;;12.15;6.00;;;;;;;18.77;69.89;100594.84;5046463;28;20084;-68
2021/07/22 07:22:48;;;;;;;13.50;6.25;;;;;;;18.78;69.29;100594.53;5040958;28;20104;-68
2021/07/22 07:25:15;;;;;;;12.07;7.15;;;;;;;18.85;69.34;100591.19;5046601;28;20042;-68
2021/07/22 07:27:42;;;;;;;12.10;6.35;;;;;;;18.97;69.54;100605.47;5049377;28;20186;-68
2021/07/22 07:30:09;;;;;;;15.13;7.53;;;;;;;19.10;69.66;100595.94;5045602;28;20131;-68
2021/07/22 07:32:36;;;;;;;11.70;6.93;;;;;;;19.18;69.33;100597.94;5041736;28;20122;-68
2021/07/22 07:35:04;;;;;;;9.80;6.10;;;;;;;19.15;69.18;100581.63;5040157;28;20128;-68
2021/07/22 07:37:31;;;;;;;12.00;6.05;;;;;;;19.17;68.99;100578.44;5036471;28;20080;-68
2021/07/22 07:39:58;;;;;;;12.55;6.63;;;;;;;19.24;68.97;100583.59;5033306;28;20049;-69
2021/07/22 07:42:26;;;;;;;14.23;5.80;;;;;;;19.26;69.03;100579.25;5033901;28;21912;-68
2021/07/22 07:44:53;;;;;;;16.50;7.13;;;;;;;19.12;69.13;100572.97;5045894;28;20088;-68
2021/07/22 07:47:20;;;;;;;15.15;6.93;;;;;;;19.08;69.25;100583.31;5039561;28;20083;-66
2021/07/22 07:49:47;;;;;;;12.93;6.90;;;;;;;18.99;69.25;100582.50;5040208;28;20049;-67
2021/07/22 07:52:15;;;;;;;13.25;7.57;;;;;;;19.07;69.25;100578.81;5032549;28;20073;-67
2021/07/22 07:54:42;;;;;;;13.50;6.97;;;;;;;19.06;69.15;100566.66;5033526;28;20346;-67
2021/07/22 07:57:09;;;;;;;17.40;6.68;;;;;;;19.09;69.18;100568.81;5041642;28;20132;-68
2021/07/22 07:59:36;;;;;;;17.83;7.47;;;;;;;19.10;69.16;100567.63;5048542;28;20084;-67
2021/07/22 08:02:03;;;;;;;15.57;7.75;;;;;;;19.21;69.33;100584.25;5041671;28;20555;-67
2021/07/22 08:04:30;;;;;;;14.40;7.70;;;;;;;19.31;69.07;100583.88;5042068;28;20084;-68
2021/07/22 08:06:57;;;;;;;11.50;6.28;;;;;;;19.40;68.85;100587.53;5045241;28;20135;-67
2021/07/22 08:09:23;;;;;;;13.48;7.03;;;;;;;19.43;68.81;100575.53;5033478;28;20131;-67
2021/07/22 08:11:50;;;;;;;13.05;6.72;;;;;;;19.52;68.82;100598.97;5034976;28;20577;-67
2021/07/22 08:14:17;;;;;;;13.52;7.38;;;;;;;19.54;68.76;100598.63;5039877;28;20136;-68
2021/07/22 08:16:46;;;;;;;14.70;7.38;;;;;;;19.59;68.72;100595.63;5036603;28;20654;-68
2021/07/22 08:19:13;;;;;;;16.50;8.05;;;;;;;19.53;68.62;100563.81;5033566;28;20098;-67
2021/07/22 08:21:40;;;;;;;13.45;7.25;;;;;;;19.73;68.33;100589.75;5039049;28;20436;-67
2021/07/22 08:24:07;;;;;;;12.95;7.03;;;;;;;19.61;68.71;100582.75;5044711;28;20068;-66
2021/07/22 08:26:33;;;;;;;11.30;6.63;;;;;;;19.69;68.45;100597.25;5035405;28;20147;-68
2021/07/22 08:29:00;;;;;;;14.00;7.55;;;;;;;19.58;68.66;100574.94;5036073;28;20183;-68
2021/07/22 08:31:27;;;;;;;15.02;6.10;;;;;;;19.79;68.59;100600.53;5050723;28;20562;-66
2021/07/22 08:33:56;;;;;;;11.75;5.78;;;;;;;19.82;68.13;100599.00;5042305;28;20080;-66
2021/07/22 08:36:23;;;;;;;13.13;6.65;;;;;;;19.68;68.57;100598.44;5042514;28;20053;-67
2021/07/22 08:38:50;;;;;;;16.20;6.95;;;;;;;19.56;68.69;100590.63;5036982;28;20096;-67
2021/07/22 08:41:17;;;;;;;15.57;6.93;;;;;;;19.26;68.95;100544.44;5033806;28;20073;-67
2021/07/22 08:43:48;;;;;;;11.45;6.88;;;;;;;19.60;68.78;100586.78;5042614;28;21258;-67
2021/07/22 08:46:16;;;;;;;16.25;6.85;;;;;;;19.73;68.66;100598.25;5039129;28;20080;-68
2021/07/22 08:48:43;;;;;;;13.05;6.75;;;;;;;19.77;68.67;100596.38;5043307;28;20476;-68
2021/07/22 08:51:10;;;;;;;15.43;6.65;;;;;;;19.84;68.50;100593.84;5037052;28;20041;-68
2021/07/22 08:53:37;;;;;;;10.50;6.22;;;;;;;19.81;68.38;100586.03;5040434;28;20053;-66
2021/07/22 08:56:07;;;;;;;14.07;6.35;;;;;;;19.77;68.51;100587.88;5032404;28;20042;-66
2021/07/22 08:58:38;;;;;;;11.05;6.13;;;;;;;19.65;68.74;100591.44;5044122;28;20080;-66
2021/07/22 09:01:07;;;;;;;12.20;6.18;;;;;;;19.67;69.12;100596.78;5045467;28;20071;-66
2021/07/22 09:03:34;;;;;;;13.60;7.13;;;;;;;19.65;68.82;100595.09;5035324;28;20045;-67
2021/07/22 09:06:21;;;;;;;12.00;6.90;;;;;;;19.87;68.54;100607.34;5032003;28;20052;-67
2021/07/22 09:08:48;;;;;;;15.60;7.18;;;;;;;19.92;68.44;100601.44;5036570;28;20049;-67
2021/07/22 09:11:15;;;;;;;18.15;7.38;;;;;;;20.02;68.54;100600.22;5041736;28;20072;-67
2021/07/22 09:13:42;;;;;;;13.10;7.18;;;;;;;20.05;68.01;100576.88;5038509;28;20080;-68
2021/07/22 09:16:09;;;;;;;12.10;6.90;;;;;;;20.06;68.09;100559.50;5039280;28;20129;-68
2021/07/22 09:18:44;;;;;;;10.05;6.20;;;;;;;20.30;67.85;100597.69;5041094;28;20504;-68
2021/07/22 09:21:22;;;;;;;13.07;6.28;;;;;;;20.24;67.72;100599.94;5034547;28;20076;-68
2021/07/22 09:24:07;;;;;;;12.80;6.65;;;;;;;20.20;67.76;100603.78;5035807;28;20048;-68
2021/07/22 09:26:37;;;;;;;13.93;6.07;;;;;;;20.27;67.86;100593.56;5038873;28;20144;-68
2021/07/22 09:29:05;;;;;;;11.10;6.45;;;;;;;20.36;67.77;100594.31;5031623;28;20056;-68
2021/07/22 09:31:32;;;;;;;11.10;6.40;;;;;;;20.30;67.74;100597.69;5033152;28;20084;-68
2021/07/22 09:33:59;;;;;;;13.05;7.18;;;;;;;20.31;67.76;100593.69;5039072;28;20047;-67
2021/07/22 09:36:26;;;;;;;12.52;6.30;;;;;;;20.42;67.72;100596.94;5037988;28;20136;-68
2021/07/22 09:38:53;;;;;;;12.65;6.60;;;;;;;20.54;67.25;100597.03;5039711;28;20045;-68
2021/07/22 09:41:22;;;;;;;14.68;6.55;;;;;;;20.66;66.95;100585.75;5034590;28;20049;-68
2021/07/22 09:43:49;;;;;;;13.00;7.45;;;;;;;20.80;66.90;100594.78;5035349;28;20140;-67
2021/07/22 09:46:16;;;;;;;12.93;6.90;;;;;;;20.79;66.91;100586.63;5037755;28;20115;-68
2021/07/22 09:49:12;;;;;;;17.02;6.65;;;;;;;20.71;66.96;100588.34;5033429;28;20076;-68
2021/07/22 09:51:39;;;;;;;14.07;6.88;;;;;;;20.77;66.71;100594.66;5030131;28;20128;-68
2021/07/22 09:54:10;;;;;;;11.98;6.53;;;;;;;20.81;66.59;100578.59;5045001;28;20073;-68
2021/07/22 09:56:38;;;;;;;12.73;6.68;;;;;;;20.91;66.19;100572.47;5038811;28;20124;-68
2021/07/22 09:59:06;;;;;;;11.95;6.25;;;;;;;21.22;65.99;100600.34;5040960;28;20045;-68
2021/07/22 10:01:45;;;;;;;12.18;6.05;;;;;;;21.28;65.77;100581.09;5032428;28;20500;-68
2021/07/22 10:04:14;;;;;;;12.30;6.70;;;;;;;21.45;65.26;100605.66;5031961;28;20540;-68
2021/07/22 10:06:44;;;;;;;11.98;6.68;;;;;;;21.39;65.24;100602.19;5033752;28;20088;-68
2021/07/22 10:09:18;;;;;;;11.80;6.32;;;;;;;21.40;65.27;100589.66;5037952;28;20128;-68
2021/07/22 10:11:47;;;;;;;14.68;6.47;;;;;;;21.50;65.18;100597.72;5033877;28;20458;-68
2021/07/22 10:14:21;;;;;;;12.35;7.55;;;;;;;21.48;64.89;100602.94;5031253;28;20132;-68
2021/07/22 10:16:49;;;;;;;23.67;10.30;;;;;;;21.45;65.12;100586.59;5047424;28;20057;-68
2021/07/22 10:19:17;;;;;;;19.75;11.80;;;;;;;21.39;65.09;100581.47;5038738;28;20482;-68
2021/07/22 10:21:44;;;;;;;24.23;10.98;;;;;;;21.50;64.91;100600.56;5043235;28;20132;-68
2021/07/22 10:24:11;;;;;;;22.35;11.60;;;;;;;21.47;64.96;100608.94;5041568;28;20124;-67
2021/07/22 10:26:43;;;;;;;22.42;12.68;;;;;;;21.47;65.24;100603.25;5037961;28;20179;-66
2021/07/22 10:29:11;;;;;;;26.45;12.50;;;;;;;21.45;65.23;100603.63;5040778;28;20467;-66
2021/07/22 10:31:46;;;;;;;25.30;12.98;;;;;;;21.34;65.13;100599.59;5043893;28;20056;-66
2021/07/22 10:34:16;;;;;;;25.23;11.00;;;;;;;21.30;65.22;100578.72;5044233;28;20076;-67
2021/07/22 10:36:48;;;;;;;27.00;12.35;;;;;;;21.49;65.25;100600.91;5045892;28;20072;-67
2021/07/22 10:39:15;;;;;;;22.35;11.93;;;;;;;21.49;65.14;100596.06;5040837;28;20041;-68
2021/07/22 10:41:43;;;;;;;23.83;12.02;;;;;;;21.60;64.88;100606.97;5052132;28;20076;-68
2021/07/22 10:44:19;;;;;;;29.33;12.02;;;;;;;21.46;64.69;100602.44;5039547;28;20042;-68
2021/07/22 10:46:57;;;;;;;26.75;12.23;;;;;;;21.29;64.86;100588.41;5041323;28;20612;-68
2021/07/22 10:49:42;;;;;;;24.88;12.30;;;;;;;21.32;65.04;100604.75;5033282;28;20045;-67
2021/07/22 10:52:12;;;;;;;22.80;10.70;;;;;;;21.38;64.83;100599.72;5040188;28;20049;-68
2021/07/22 10:54:38;;;;;;;;;;;;;;;21.39;65.15;100607.88;5042305;28;20056;-68
2021/07/22 10:57:05;;;;;;;28.75;11.15;;;;;;;21.50;64.97;100609.09;5045270;28;20284;-67
2021/07/22 10:59:55;;;;;;;28.33;13.25;;;;;;;21.50;64.76;100603.41;5038995;28;20510;-68
2021/07/22 11:02:39;;;;;;;26.67;12.20;;;;;;;21.59;64.65;100605.31;5037396;28;20087;-69
2021/07/22 11:05:06;;;;;;;26.20;12.43;;;;;;;21.55;64.50;100612.88;5046961;28;20041;-70
2021/07/22 11:07:33;;;;;;;24.92;12.05;;;;;;;21.66;64.21;100612.06;5040537;28;20084;-68
2021/07/22 11:10:14;;;;;;;22.25;11.13;;;;;;;21.68;63.90;100600.34;5040920;28;20099;-68
2021/07/22 11:12:49;;;;;;;22.08;10.48;;;;;;;21.81;63.94;100610.50;5034688;28;20041;-67
2021/07/22 11:15:45;;;;;;;21.60;10.77;;;;;;;21.87;63.88;100609.09;5035243;28;20095;-67
2021/07/22 11:18:44;;;;;;;22.50;10.38;;;;;;;21.86;63.62;100615.97;5035559;28;20042;-67
2021/07/22 11:21:15;;;;;;;19.37;9.80;;;;;;;21.77;63.94;100616.06;5034231;28;20115;-67
2021/07/22 11:23:52;;;;;;;25.77;11.05;;;;;;;21.71;63.85;100608.16;5034972;28;20049;-67